Time;durP1;ratioP1;P1;durP2;ratioP2;P2;SDS_P1;SDS_P2;PMS_P1;PMS_P2;Temp;Humidity;BMP_temperature;BMP_pressure;BME280_temperature;BME280_humidity;BME280_pressure;Samples;Min_cycle;Max_cycle;Signal;HPM_P1;HPM_P2
2021/03/03 00:01:47;;;;;;;14.90;7.25;;;;;;;4.65;45.73;95177.72;5153959;27;20070;-77
2021/03/03 00:04:13;;;;;;;13.00;6.40;;;;;;;4.58;44.66;95172.59;5135761;27;20465;-77
2021/03/03 00:06:38;;;;;;;16.45;7.47;;;;;;;4.59;45.19;95201.41;5132617;27;20101;-77
2021/03/03 00:09:04;;;;;;;15.95;6.57;;;;;;;4.59;45.19;95188.19;5134071;27;20489;-76
2021/03/03 00:11:29;;;;;;;16.13;7.43;;;;;;;4.58;45.61;95183.16;5132532;27;20110;-76
2021/03/03 00:13:55;;;;;;;16.92;7.03;;;;;;;4.51;45.61;95183.31;5137166;27;20438;-76
2021/03/03 00:16:20;;;;;;;13.07;6.25;;;;;;;4.50;45.53;95187.03;5133082;27;20029;-76
2021/03/03 00:18:46;;;;;;;15.38;6.13;;;;;;;4.49;45.52;95180.13;5132688;27;20039;-76
2021/03/03 00:21:11;;;;;;;12.80;6.72;;;;;;;4.49;45.77;95185.41;5143283;27;20473;-76
2021/03/03 00:23:37;;;;;;;13.45;6.72;;;;;;;4.50;46.02;95181.75;5131938;27;20110;-77
2021/03/03 00:26:02;;;;;;;13.52;6.72;;;;;;;4.50;45.83;95175.63;5133302;27;20558;-77
2021/03/03 00:28:27;;;;;;;12.80;6.28;;;;;;;4.52;45.85;95189.41;5140697;27;20055;-77
2021/03/03 00:30:53;;;;;;;14.35;6.82;;;;;;;4.50;45.83;95180.91;5132300;27;20491;-78
2021/03/03 00:33:18;;;;;;;14.27;6.03;;;;;;;4.47;45.94;95170.84;5133095;27;20023;-77
2021/03/03 00:35:44;;;;;;;14.68;7.13;;;;;;;4.49;46.23;95176.69;5131821;27;20076;-77
2021/03/03 00:38:09;;;;;;;14.32;7.05;;;;;;;4.40;46.11;95178.94;5133507;27;20027;-77
2021/03/03 00:40:35;;;;;;;13.80;6.78;;;;;;;4.42;46.00;95180.31;5133203;27;20071;-77
2021/03/03 00:43:00;;;;;;;14.75;6.95;;;;;;;4.42;46.37;95174.22;5133478;27;20029;-77
2021/03/03 00:45:26;;;;;;;15.80;6.68;;;;;;;4.42;46.31;95180.31;5149140;27;20023;-77
2021/03/03 00:47:51;;;;;;;17.75;7.90;;;;;;;4.42;46.61;95175.03;5153233;27;20101;-77
2021/03/03 00:50:16;;;;;;;16.33;7.00;;;;;;;4.46;46.47;95177.97;5153641;27;20156;-76
2021/03/03 00:52:42;;;;;;;14.20;7.13;;;;;;;4.36;46.27;95164.63;5135093;27;20027;-77
2021/03/03 00:55:08;;;;;;;11.32;6.25;;;;;;;4.42;46.29;95163.66;5153583;27;20030;-77
2021/03/03 00:57:33;;;;;;;15.70;6.45;;;;;;;4.45;46.17;95168.44;5153649;27;20033;-76
2021/03/03 00:59:59;;;;;;;15.20;6.32;;;;;;;4.40;45.73;95165.75;5149439;27;20038;-76
2021/03/03 01:02:24;;;;;;;16.77;6.38;;;;;;;4.39;46.09;95167.56;5132588;27;20043;-76
2021/03/03 01:04:50;;;;;;;14.52;7.45;;;;;;;4.38;46.04;95173.13;5135593;27;20034;-76
2021/03/03 01:07:15;;;;;;;15.57;6.43;;;;;;;4.35;46.34;95166.44;5127170;27;20079;-76
2021/03/03 01:09:40;;;;;;;16.55;6.20;;;;;;;4.38;46.32;95173.13;5131185;27;20111;-75
2021/03/03 01:12:06;;;;;;;15.07;6.97;;;;;;;4.33;46.17;95162.47;5132567;27;20051;-76
2021/03/03 01:14:32;;;;;;;14.50;7.50;;;;;;;4.31;46.58;95167.19;5134286;27;20180;-76
2021/03/03 01:16:57;;;;;;;20.70;7.13;;;;;;;4.26;46.62;95165.28;5130819;27;20409;-76
2021/03/03 01:19:22;;;;;;;16.30;7.75;;;;;;;4.26;46.78;95175.03;5130509;27;20039;-76
2021/03/03 01:21:48;;;;;;;13.57;7.05;;;;;;;4.30;46.83;95168.25;5131633;27;20091;-76
2021/03/03 01:24:13;;;;;;;20.42;7.93;;;;;;;4.20;46.49;95172.31;5132021;27;20031;-77
2021/03/03 01:26:40;;;;;;;15.95;8.10;;;;;;;4.14;46.77;95170.63;5131449;27;20128;-76
2021/03/03 01:29:06;;;;;;;14.30;7.20;;;;;;;4.08;47.14;95165.53;5131067;27;20023;-77
2021/03/03 01:31:32;;;;;;;14.68;6.50;;;;;;;4.13;47.67;95179.59;5130290;27;20029;-76
2021/03/03 01:33:58;;;;;;;16.15;6.40;;;;;;;4.24;47.36;95175.28;5133504;27;20035;-77
2021/03/03 01:36:24;;;;;;;16.92;7.03;;;;;;;4.26;47.52;95180.31;5133222;27;20030;-77
2021/03/03 01:38:49;;;;;;;17.85;7.22;;;;;;;4.32;47.56;95174.06;5129739;27;20030;-76
2021/03/03 01:41:15;;;;;;;14.93;7.20;;;;;;;4.34;47.59;95175.44;5145774;27;20026;-77
2021/03/03 01:43:41;;;;;;;15.50;7.22;;;;;;;4.39;47.42;95175.50;5151758;27;20061;-76
2021/03/03 01:46:06;;;;;;;15.55;7.32;;;;;;;4.40;47.62;95179.75;5132844;27;20446;-78
2021/03/03 01:48:32;;;;;;;15.18;7.00;;;;;;;4.30;47.74;95173.53;5147964;27;20106;-77
2021/03/03 01:50:58;;;;;;;15.88;7.60;;;;;;;4.35;47.66;95176.22;5151825;27;20031;-78
2021/03/03 01:53:23;;;;;;;20.80;8.13;;;;;;;4.34;47.73;95174.63;5126932;27;20027;-77
2021/03/03 01:55:49;;;;;;;16.75;7.38;;;;;;;4.35;47.61;95174.38;5129208;27;20297;-77
2021/03/03 01:58:14;;;;;;;13.20;6.50;;;;;;;4.35;47.65;95184.13;5147229;27;20026;-77
2021/03/03 02:00:40;;;;;;;17.65;7.53;;;;;;;4.37;47.15;95180.22;5135314;27;20545;-77
2021/03/03 02:03:05;;;;;;;12.88;6.15;;;;;;;4.30;47.46;95173.53;5143846;27;20512;-76
2021/03/03 02:05:31;;;;;;;17.85;7.53;;;;;;;4.29;47.30;95179.81;5147248;27;20103;-77
2021/03/03 02:08:32;;;;;;;18.70;7.18;;;;;;;4.30;47.53;95176.94;5130705;27;20027;-76
2021/03/03 02:11:09;;;;;;;14.48;6.53;;;;;;;4.25;47.45;95165.50;5132317;27;20113;-75
2021/03/03 02:13:40;;;;;;;17.33;6.60;;;;;;;4.17;47.61;95166.69;5151511;27;20469;-76
2021/03/03 02:16:10;;;;;;;13.10;6.10;;;;;;;4.18;47.52;95174.38;5151319;27;20110;-75
2021/03/03 02:18:36;;;;;;;16.60;7.28;;;;;;;4.17;47.71;95183.38;5137408;27;20027;-76
2021/03/03 02:21:48;;;;;;;14.45;6.97;;;;;;;4.11;47.88;95188.78;5146299;27;20125;-75
2021/03/03 02:24:18;;;;;;;16.77;7.28;;;;;;;4.09;48.03;95186.41;5098574;27;20084;-76
2021/03/03 02:26:46;;;;;;;15.70;7.78;;;;;;;3.98;48.54;95195.16;5142878;27;20053;-76
2021/03/03 02:29:19;;;;;;;13.70;6.47;;;;;;;4.04;48.65;95191.56;5133080;27;20253;-76
2021/03/03 02:31:46;;;;;;;14.70;6.80;;;;;;;4.02;48.66;95204.22;5150988;27;20520;-76
2021/03/03 02:34:15;;;;;;;18.90;8.70;;;;;;;4.02;48.59;95205.00;5131905;27;20022;-75
2021/03/03 02:36:45;;;;;;;17.30;8.02;;;;;;;4.04;48.65;95210.03;5132022;27;20048;-76
2021/03/03 02:39:11;;;;;;;15.52;6.97;;;;;;;4.04;48.72;95217.16;5134930;27;20022;-78
2021/03/03 02:41:37;;;;;;;20.50;7.95;;;;;;;4.00;48.34;95214.19;5134765;27;20029;-77
2021/03/03 02:44:04;;;;;;;20.05;7.88;;;;;;;3.94;48.13;95210.66;5149330;27;20557;-77
2021/03/03 02:46:32;;;;;;;19.77;7.93;;;;;;;3.96;48.82;95213.06;5146161;27;20527;-77
2021/03/03 02:48:57;;;;;;;15.98;7.13;;;;;;;3.96;48.70;95207.81;5131027;27;20027;-76
2021/03/03 02:51:22;;;;;;;18.48;7.28;;;;;;;3.90;48.68;95206.91;5131495;27;20402;-76
2021/03/03 02:53:48;;;;;;;15.95;7.38;;;;;;;3.89;49.02;95209.78;5131530;27;20023;-76
2021/03/03 02:56:13;;;;;;;16.80;8.00;;;;;;;3.89;49.12;95212.41;5129299;27;20094;-76
2021/03/03 02:58:39;;;;;;;22.67;8.35;;;;;;;3.86;49.39;95197.88;5129770;27;20065;-77
2021/03/03 03:01:09;;;;;;;15.00;7.32;;;;;;;3.84;49.72;95210.50;5145275;27;20027;-76
2021/03/03 03:04:02;;;;;;;18.77;7.32;;;;;;;3.79;49.34;95208.56;5128707;27;20031;-76
2021/03/03 03:06:32;;;;;;;15.48;7.22;;;;;;;3.69;49.91;95208.41;5129821;27;20375;-76
2021/03/03 03:09:02;;;;;;;16.70;7.65;;;;;;;3.66;50.04;95205.41;5138805;27;20048;-76
2021/03/03 03:11:31;;;;;;;17.40;7.00;;;;;;;3.59;50.11;95210.84;5150415;27;20022;-77
2021/03/03 03:14:07;;;;;;;28.58;10.27;;;;;;;3.63;49.56;95209.34;5132398;27;20029;-77
2021/03/03 03:16:35;;;;;;;31.88;12.80;;;;;;;3.54;49.73;95213.38;5132468;27;20022;-77
2021/03/03 03:19:06;;;;;;;29.35;11.48;;;;;;;3.46;49.79;95208.47;5150655;27;20030;-77
2021/03/03 03:21:38;;;;;;;25.33;10.18;;;;;;;3.46;50.39;95216.38;5150046;27;20039;-78
2021/03/03 03:24:03;;;;;;;29.95;9.95;;;;;;;3.44;50.06;95216.63;5150280;27;20038;-77
2021/03/03 03:26:31;;;;;;;23.83;8.48;;;;;;;3.44;50.21;95221.09;5139258;27;20023;-78
2021/03/03 03:28:57;;;;;;;20.60;8.93;;;;;;;3.36;50.44;95225.72;5129877;27;20118;-77
2021/03/03 03:31:23;;;;;;;22.95;7.55;;;;;;;3.35;50.57;95223.31;5129340;27;20063;-77
2021/03/03 03:33:52;;;;;;;19.70;8.60;;;;;;;3.34;50.67;95230.41;5134766;27;20104;-78
2021/03/03 03:36:18;;;;;;;16.92;7.45;;;;;;;3.32;50.73;95227.22;5150752;27;20083;-77
2021/03/03 03:38:44;;;;;;;20.75;8.60;;;;;;;3.30;50.85;95226.66;5150785;27;20064;-77
2021/03/03 03:41:10;;;;;;;21.88;9.07;;;;;;;3.29;50.82;95229.50;5150740;27;20050;-77
2021/03/03 03:43:38;;;;;;;16.35;7.95;;;;;;;3.22;51.07;95232.28;5150558;27;20466;-77
2021/03/03 03:46:05;;;;;;;18.73;7.90;;;;;;;3.12;51.40;95234.72;5150638;27;20029;-78
2021/03/03 03:48:36;;;;;;;17.20;7.85;;;;;;;3.08;51.44;95233.56;5131755;27;20034;-77
2021/03/03 03:51:06;;;;;;;17.83;7.45;;;;;;;3.01;52.04;95234.50;5150564;27;20083;-78
2021/03/03 03:53:32;;;;;;;21.30;9.55;;;;;;;2.89;52.10;95236.34;5141960;27;20027;-77
2021/03/03 03:55:58;;;;;;;17.00;7.68;;;;;;;2.87;52.33;95234.97;5130877;27;20403;-77
2021/03/03 03:58:23;;;;;;;20.05;8.50;;;;;;;2.83;52.40;95232.00;5130853;27;20022;-78
2021/03/03 04:00:49;;;;;;;17.60;7.93;;;;;;;2.72;53.10;95238.84;5127820;27;20027;-75
2021/03/03 04:03:14;;;;;;;21.25;9.48;;;;;;;2.69;53.23;95228.00;5128571;27;20023;-78
2021/03/03 04:05:40;;;;;;;21.55;10.30;;;;;;;2.67;53.43;95222.97;5128042;27;20022;-77
2021/03/03 04:08:05;;;;;;;21.88;9.38;;;;;;;2.65;53.38;95224.22;5130939;27;20113;-78
2021/03/03 04:10:31;;;;;;;22.55;9.52;;;;;;;2.68;53.71;95231.66;5132506;27;20456;-78
2021/03/03 04:12:56;;;;;;;24.45;10.15;;;;;;;2.55;54.10;95224.81;5133822;27;20019;-78
2021/03/03 04:15:25;;;;;;;24.42;9.65;;;;;;;2.54;54.32;95225.81;5135759;27;20122;-78
2021/03/03 04:17:52;;;;;;;19.02;9.77;;;;;;;2.47;54.68;95230.41;5131863;27;20118;-78
2021/03/03 04:20:18;;;;;;;22.33;9.70;;;;;;;2.45;54.78;95238.53;5148253;27;20054;-79
2021/03/03 04:22:44;;;;;;;15.52;8.55;;;;;;;2.42;54.83;95236.31;5153923;27;20107;-78
2021/03/03 04:25:12;;;;;;;20.63;9.82;;;;;;;2.35;54.90;95239.06;5129878;27;20019;-79
2021/03/03 04:27:38;;;;;;;19.23;9.82;;;;;;;2.32;55.48;95246.63;5144965;27;20038;-78
2021/03/03 04:30:05;;;;;;;19.45;9.88;;;;;;;2.27;56.68;95243.88;5135272;27;20453;-77
2021/03/03 04:32:31;;;;;;;23.27;10.38;;;;;;;2.36;56.53;95245.13;5153825;27;20035;-77
2021/03/03 04:34:57;;;;;;;25.38;11.93;;;;;;;2.47;56.26;95248.81;5134995;27;20109;-77
2021/03/03 04:37:22;;;;;;;21.48;9.35;;;;;;;2.49;57.29;95250.19;5135332;27;20033;-77
2021/03/03 04:39:48;;;;;;;24.40;11.77;;;;;;;2.55;56.60;95257.19;5134321;27;20035;-77
2021/03/03 04:42:13;;;;;;;25.08;10.82;;;;;;;2.55;56.67;95259.03;5153121;27;20103;-77
2021/03/03 04:44:39;;;;;;;24.00;10.80;;;;;;;2.58;56.47;95250.66;5153695;27;20060;-77
2021/03/03 04:47:04;;;;;;;21.52;10.80;;;;;;;2.64;56.41;95254.19;5134897;27;20015;-77
2021/03/03 04:49:30;;;;;;;30.10;10.43;;;;;;;2.60;56.66;95249.38;5153282;27;20022;-78
2021/03/03 04:51:55;;;;;;;25.75;10.70;;;;;;;2.58;56.68;95248.00;5151680;27;20026;-78
2021/03/03 04:54:20;;;;;;;27.73;10.98;;;;;;;2.58;57.42;95248.00;5132531;27;20031;-78
2021/03/03 04:56:46;;;;;;;22.55;11.25;;;;;;;2.59;57.02;95254.91;5145077;27;20470;-78
2021/03/03 04:59:11;;;;;;;22.35;10.18;;;;;;;2.64;56.92;95255.00;5132797;27;20027;-78
2021/03/03 05:01:36;;;;;;;33.50;11.55;;;;;;;2.51;56.78;95260.50;5132226;27;20050;-78
2021/03/03 05:04:02;;;;;;;24.73;11.25;;;;;;;2.38;56.79;95250.97;5132355;27;20041;-78
2021/03/03 05:06:27;;;;;;;38.53;11.98;;;;;;;2.37;56.85;95250.19;5137178;27;20031;-77
2021/03/03 05:08:53;;;;;;;30.10;11.98;;;;;;;2.36;56.64;95258.28;5132407;27;20027;-78
2021/03/03 05:11:21;;;;;;;30.13;14.18;;;;;;;2.26;57.08;95265.94;5132704;27;20110;-78
2021/03/03 05:13:46;;;;;;;27.90;11.05;;;;;;;2.22;57.20;95268.25;5148190;27;20087;-78
2021/03/03 05:16:11;;;;;;;27.40;12.85;;;;;;;2.26;57.12;95263.31;5130396;27;20035;-78
2021/03/03 05:18:37;;;;;;;27.50;12.30;;;;;;;2.27;57.47;95270.19;5138274;27;20459;-78
2021/03/03 05:21:02;;;;;;;30.10;13.02;;;;;;;2.28;57.42;95271.78;5131249;27;20042;-77
2021/03/03 05:23:32;;;;;;;33.05;11.52;;;;;;;2.15;58.07;95273.59;5149936;27;20035;-78
2021/03/03 05:25:59;;;;;;;32.42;12.65;;;;;;;2.25;57.84;95272.25;5153009;27;20401;-77
2021/03/03 05:28:25;;;;;;;37.17;14.15;;;;;;;2.31;57.95;95266.06;5134568;27;20026;-78
2021/03/03 05:30:51;;;;;;;39.30;13.18;;;;;;;2.35;57.34;95257.50;5153396;27;20412;-76
2021/03/03 05:33:30;;;;;;;40.30;14.70;;;;;;;2.29;58.78;95265.50;5152736;27;20074;-77
2021/03/03 05:35:58;;;;;;;38.78;13.38;;;;;;;2.23;58.80;95271.66;5133984;27;20114;-77
2021/03/03 05:38:24;;;;;;;28.80;12.82;;;;;;;2.23;59.48;95258.50;5152879;27;20022;-77
2021/03/03 05:40:51;;;;;;;28.35;12.30;;;;;;;2.26;59.51;95271.19;5134426;27;20678;-76
2021/03/03 05:43:16;;;;;;;36.40;14.18;;;;;;;2.31;59.64;95266.06;5133916;27;20056;-78
2021/03/03 05:45:43;;;;;;;35.33;13.50;;;;;;;2.38;59.52;95269.38;5152638;27;20469;-78
2021/03/03 05:48:20;;;;;;;34.88;13.30;;;;;;;2.44;59.95;95260.59;5133508;27;20031;-77
2021/03/03 05:50:51;;;;;;;32.45;14.00;;;;;;;2.51;60.30;95271.81;5152609;27;20029;-79
2021/03/03 05:53:17;;;;;;;32.25;13.95;;;;;;;2.60;60.61;95269.66;5150619;27;20420;-78
2021/03/03 05:55:43;;;;;;;40.28;14.85;;;;;;;2.60;60.88;95262.53;5133707;27;20030;-78
2021/03/03 05:58:10;;;;;;;31.73;13.68;;;;;;;2.68;60.85;95255.34;5133727;27;20045;-78
2021/03/03 06:00:37;;;;;;;32.67;14.10;;;;;;;2.81;60.96;95261.19;5133399;27;20034;-79
2021/03/03 06:03:03;;;;;;;34.38;14.00;;;;;;;2.93;61.27;95250.66;5145751;27;20043;-79
2021/03/03 06:05:31;;;;;;;27.40;13.80;;;;;;;3.04;61.06;95259.56;5142958;27;20417;-79
2021/03/03 06:07:56;;;;;;;28.85;12.73;;;;;;;3.13;60.80;95257.38;5130196;27;20031;-79
2021/03/03 06:10:22;;;;;;;29.67;14.13;;;;;;;3.22;61.24;95269.16;5130067;27;20037;-76
2021/03/03 06:12:49;;;;;;;27.92;12.70;;;;;;;3.31;60.52;95262.50;5133357;27;20062;-77
2021/03/03 06:15:15;;;;;;;36.42;14.43;;;;;;;3.40;60.37;95269.00;5131531;27;20030;-77
2021/03/03 06:17:42;;;;;;;35.90;13.77;;;;;;;3.52;60.13;95268.16;5131331;27;20154;-76
2021/03/03 06:20:09;;;;;;;37.83;14.65;;;;;;;3.59;60.21;95276.75;5141232;27;20027;-77
2021/03/03 06:22:34;;;;;;;31.27;14.05;;;;;;;3.64;59.89;95274.22;5130527;27;20033;-76
2021/03/03 06:25:00;;;;;;;33.42;14.68;;;;;;;3.67;60.05;95279.03;5151151;27;20019;-77
2021/03/03 06:27:39;;;;;;;31.00;13.35;;;;;;;3.75;59.58;95283.94;5132529;27;20048;-77
2021/03/03 06:30:08;;;;;;;31.23;13.70;;;;;;;3.79;59.22;95265.81;5150305;27;20023;-75
2021/03/03 06:33:00;;;;;;;33.28;14.02;;;;;;;3.86;59.07;95270.94;5134934;27;20470;-75
2021/03/03 06:35:35;;;;;;;27.40;13.35;;;;;;;3.94;59.03;95268.69;5132335;27;20401;-77
2021/03/03 06:38:01;;;;;;;34.65;14.77;;;;;;;3.99;59.09;95268.81;5150131;27;20026;-75
2021/03/03 06:40:27;;;;;;;30.63;14.80;;;;;;;4.11;60.28;95267.94;5130827;27;20478;-79
2021/03/03 06:42:53;;;;;;;27.95;11.68;;;;;;;4.23;58.98;95271.31;5138963;27;20027;-75
2021/03/03 06:45:28;;;;;;;28.52;13.68;;;;;;;4.38;58.08;95274.22;5142821;27;20029;-75
2021/03/03 06:47:55;;;;;;;30.08;12.65;;;;;;;4.48;56.77;95278.03;5130077;27;20023;-75
2021/03/03 06:50:21;;;;;;;34.40;13.50;;;;;;;4.59;57.01;95270.06;5132450;27;20015;-76
2021/03/03 06:52:47;;;;;;;28.63;13.43;;;;;;;4.70;56.44;95278.97;5139607;27;20034;-75
2021/03/03 06:55:13;;;;;;;30.15;14.25;;;;;;;4.79;56.01;95274.84;5129221;27;20109;-76
2021/03/03 06:57:39;;;;;;;28.45;13.38;;;;;;;4.82;55.63;95278.84;5143437;27;20501;-76
2021/03/03 07:00:07;;;;;;;32.95;14.18;;;;;;;4.86;55.95;95279.97;5130192;27;20090;-77
2021/03/03 07:02:33;;;;;;;31.08;12.63;;;;;;;4.87;55.29;95278.94;5130281;27;20035;-76
2021/03/03 07:04:59;;;;;;;37.08;13.82;;;;;;;4.93;55.61;95270.03;5130408;27;20080;-73
2021/03/03 07:07:25;;;;;;;36.67;14.02;;;;;;;5.00;54.73;95280.44;5149839;27;20714;-78
2021/03/03 07:09:59;;;;;;;36.40;13.60;;;;;;;5.02;54.82;95273.06;5148926;27;20083;-77
2021/03/03 07:12:30;;;;;;;30.10;13.20;;;;;;;5.13;54.82;95274.00;5134039;27;20318;-78
2021/03/03 07:15:09;;;;;;;26.30;12.30;;;;;;;5.17;55.04;95289.16;5148039;27;20023;-78
2021/03/03 07:17:38;;;;;;;28.52;12.57;;;;;;;5.12;54.61;95272.41;5130637;27;20267;-78
2021/03/03 07:20:11;;;;;;;27.30;12.95;;;;;;;5.20;54.75;95274.63;5143785;27;20072;-78
2021/03/03 07:22:39;;;;;;;32.25;13.50;;;;;;;5.14;55.07;95267.69;5128398;27;20015;-78
2021/03/03 07:25:09;;;;;;;22.25;11.15;;;;;;;5.17;54.11;95275.09;5127466;27;20024;-78
2021/03/03 07:27:36;;;;;;;32.08;13.30;;;;;;;5.22;54.76;95269.91;5144876;27;20026;-79
2021/03/03 07:30:11;;;;;;;27.77;12.57;;;;;;;5.29;54.42;95261.78;5129614;27;20030;-78
2021/03/03 07:32:37;;;;;;;26.08;12.32;;;;;;;5.33;54.29;95268.19;5132448;27;20030;-79
2021/03/03 07:35:05;;;;;;;27.85;12.73;;;;;;;5.29;54.07;95265.25;5131385;27;20033;-80
2021/03/03 07:37:36;;;;;;;30.58;12.88;;;;;;;5.28;54.64;95255.69;5129194;27;20019;-79
2021/03/03 07:40:06;;;;;;;25.40;12.38;;;;;;;5.31;54.69;95254.41;5133753;27;20027;-79
2021/03/03 07:42:32;;;;;;;27.90;12.90;;;;;;;5.40;54.80;95253.75;5132401;27;20030;-80
2021/03/03 07:45:00;;;;;;;28.90;12.98;;;;;;;5.49;53.99;95258.59;5144759;27;20438;-77
2021/03/03 07:47:28;;;;;;;24.55;12.82;;;;;;;5.50;53.72;95255.72;5148961;27;20103;-79
2021/03/03 07:49:58;;;;;;;25.30;13.52;;;;;;;5.48;54.17;95249.88;5134505;27;20029;-80
2021/03/03 07:52:25;;;;;;;29.42;13.15;;;;;;;5.55;53.93;95253.13;5133025;27;20030;-79
2021/03/03 07:54:51;;;;;;;27.83;13.45;;;;;;;5.58;54.26;95246.56;5145657;27;20023;-80
2021/03/03 07:57:17;;;;;;;24.70;12.70;;;;;;;5.55;53.69;95254.97;5131126;27;20050;-80
2021/03/03 07:59:43;;;;;;;26.48;11.98;;;;;;;5.59;53.92;95250.78;5135705;27;20050;-80
2021/03/03 08:02:10;;;;;;;32.83;13.02;;;;;;;5.61;54.45;95249.47;5145175;27;20055;-81
2021/03/03 08:04:41;;;;;;;35.05;12.75;;;;;;;5.68;53.51;95254.59;5132507;27;20027;-76
2021/03/03 08:07:20;;;;;;;29.50;13.23;;;;;;;5.77;53.59;95250.44;5150751;27;20123;-80
2021/03/03 08:10:07;;;;;;;27.80;13.05;;;;;;;5.85;53.31;95259.00;5133359;27;20021;-80
2021/03/03 08:12:32;;;;;;;28.13;12.18;;;;;;;5.92;53.26;95251.66;5135654;27;20021;-80
2021/03/03 08:14:58;;;;;;;29.75;13.43;;;;;;;5.99;52.81;95253.09;5145864;27;20023;-80
2021/03/03 08:17:27;;;;;;;24.88;11.98;;;;;;;6.05;52.03;95259.25;5133850;27;20061;-80
2021/03/03 08:19:58;;;;;;;29.13;12.35;;;;;;;6.05;52.81;95251.31;5135606;27;20026;-79
2021/03/03 08:23:01;;;;;;;27.73;12.07;;;;;;;6.08;52.72;95258.72;5134588;27;20110;-78
2021/03/03 08:26:05;;;;;;;29.00;12.25;;;;;;;6.16;52.96;95258.28;5135119;27;20026;-79
2021/03/03 08:28:33;;;;;;;27.98;12.52;;;;;;;6.28;52.57;95254.69;5089475;28;20077;-80
2021/03/03 08:31:04;;;;;;;28.60;12.65;;;;;;;6.37;51.89;95261.09;5122084;27;20046;-79
2021/03/03 08:33:40;;;;;;;22.83;11.70;;;;;;;6.39;52.47;95257.19;5145918;27;20031;-79
2021/03/03 08:36:08;;;;;;;28.90;13.77;;;;;;;6.41;51.74;95254.25;5134834;27;20026;-79
2021/03/03 08:38:34;;;;;;;24.80;11.65;;;;;;;6.52;51.40;95245.34;5134890;27;20129;-79
2021/03/03 08:41:31;;;;;;;30.40;13.57;;;;;;;6.69;51.28;95247.06;5144015;27;20113;-80
2021/03/03 08:44:02;;;;;;;33.88;12.75;;;;;;;6.75;50.76;95246.84;5134931;27;20027;-80
2021/03/03 08:46:30;;;;;;;22.85;11.50;;;;;;;6.79;50.15;95241.84;5145813;27;20014;-79
2021/03/03 08:48:55;;;;;;;23.40;11.73;;;;;;;6.87;49.93;95243.22;5150058;27;20022;-80
2021/03/03 08:51:21;;;;;;;25.10;11.10;;;;;;;6.93;49.53;95236.91;5134298;27;20078;-79
2021/03/03 08:53:54;;;;;;;27.25;11.73;;;;;;;7.02;50.07;95235.34;5132211;27;20018;-80
2021/03/03 08:56:39;;;;;;;27.95;13.95;;;;;;;7.11;50.20;95233.81;5133717;27;20023;-80
2021/03/03 08:59:31;;;;;;;25.98;11.70;;;;;;;7.17;49.63;95230.13;5134986;27;20067;-79
2021/03/03 09:02:15;;;;;;;27.83;12.07;;;;;;;7.29;48.64;95235.25;5123340;27;20099;-80
2021/03/03 09:04:40;;;;;;;26.20;11.27;;;;;;;7.29;49.01;95221.97;5134917;27;20387;-80
2021/03/03 09:07:20;;;;;;;20.65;11.07;;;;;;;7.41;48.69;95227.06;5146429;27;20023;-80
2021/03/03 09:09:51;;;;;;;28.48;13.15;;;;;;;7.54;49.27;95223.13;5133015;27;20039;-80
2021/03/03 09:12:21;;;;;;;28.13;12.20;;;;;;;7.55;48.96;95222.88;5131387;27;20109;-80
2021/03/03 09:14:51;;;;;;;30.50;11.45;;;;;;;7.66;48.69;95218.41;5139351;27;20110;-80
2021/03/03 09:17:20;;;;;;;33.60;14.00;;;;;;;7.77;48.70;95222.66;5134320;27;20019;-80
2021/03/03 09:19:47;;;;;;;26.23;11.35;;;;;;;7.89;48.30;95224.28;5130089;27;20497;-80
2021/03/03 09:22:16;;;;;;;29.55;13.23;;;;;;;8.03;47.57;95225.38;5139433;27;20041;-80
2021/03/03 09:24:43;;;;;;;32.55;12.85;;;;;;;8.18;47.75;95236.03;5152598;27;20054;-79
2021/03/03 09:27:09;;;;;;;24.80;11.65;;;;;;;8.20;47.06;95233.09;5150696;27;20026;-80
2021/03/03 09:29:37;;;;;;;33.67;13.95;;;;;;;8.23;47.38;95216.66;5134061;27;20027;-79
2021/03/03 09:32:09;;;;;;;26.73;12.27;;;;;;;8.40;47.10;95222.50;5142084;27;20026;-80
2021/03/03 09:34:42;;;;;;;23.30;11.82;;;;;;;8.54;47.00;95228.09;5132666;27;20044;-79
2021/03/03 09:37:08;;;;;;;20.92;11.32;;;;;;;8.70;45.68;95222.78;5151474;27;20030;-79
2021/03/03 09:39:34;;;;;;;23.70;11.88;;;;;;;8.68;46.28;95207.09;5140656;27;20034;-79
2021/03/03 09:42:03;;;;;;;21.55;11.07;;;;;;;8.68;45.60;95216.94;5144091;27;20023;-79
2021/03/03 09:44:57;;;;;;;27.55;12.70;;;;;;;8.72;45.25;95212.69;5146311;27;20424;-79
2021/03/03 09:47:27;;;;;;;23.50;12.02;;;;;;;8.71;45.25;95211.91;5133512;27;20035;-79
2021/03/03 09:49:54;;;;;;;23.92;12.07;;;;;;;8.70;45.47;95217.47;5141812;27;20031;-79
2021/03/03 09:52:20;;;;;;;24.30;11.95;;;;;;;8.67;45.17;95210.84;5130129;27;20019;-79
2021/03/03 09:54:45;;;;;;;23.17;11.18;;;;;;;8.74;45.18;95199.94;5132680;27;20025;-79
2021/03/03 09:57:13;;;;;;;28.50;12.20;;;;;;;8.83;45.75;95206.28;5144073;27;20461;-79
2021/03/03 09:59:42;;;;;;;24.50;12.48;;;;;;;8.95;44.25;95196.16;5135532;27;20027;-79
2021/03/03 10:02:09;;;;;;;28.33;12.00;;;;;;;9.08;44.11;95189.50;5147191;27;20395;-80
2021/03/03 10:04:40;;;;;;;25.65;12.13;;;;;;;9.14;44.13;95196.38;5133772;27;20058;-79
2021/03/03 10:07:17;;;;;;;28.95;12.05;;;;;;;9.20;43.98;95186.53;5133330;27;20073;-79
2021/03/03 10:09:45;;;;;;;22.35;10.45;;;;;;;9.32;43.76;95187.03;5133412;27;20117;-79
2021/03/03 10:12:19;;;;;;;21.40;11.05;;;;;;;9.41;43.50;95176.59;5130089;27;20019;-79
2021/03/03 10:15:05;;;;;;;22.27;12.70;;;;;;;9.54;42.99;95180.53;5133555;27;20026;-73
2021/03/03 10:17:38;;;;;;;24.88;12.10;;;;;;;9.61;43.37;95187.16;5131317;27;20465;-74
2021/03/03 10:20:28;;;;;;;28.20;11.43;;;;;;;9.70;42.98;95174.06;5130956;27;20118;-73
2021/03/03 10:22:55;;;;;;;20.05;10.43;;;;;;;9.73;43.42;95168.19;5129891;27;20492;-73
2021/03/03 10:25:31;;;;;;;22.73;11.10;;;;;;;9.88;42.69;95161.97;5131042;27;20027;-73
2021/03/03 10:28:18;;;;;;;17.77;9.93;;;;;;;10.11;42.22;95157.81;5131319;27;20019;-72
2021/03/03 10:30:49;;;;;;;25.42;11.43;;;;;;;10.28;41.30;95157.44;5128366;27;20019;-74
2021/03/03 10:33:28;;;;;;;22.83;11.27;;;;;;;10.35;40.94;95149.13;5130879;27;20057;-70
2021/03/03 10:35:56;;;;;;;21.88;10.65;;;;;;;10.44;41.41;95137.59;5138878;27;20397;-73
2021/03/03 10:38:23;;;;;;;23.67;10.02;;;;;;;10.58;40.52;95139.59;5129287;27;20035;-72
2021/03/03 10:40:49;;;;;;;25.58;10.50;;;;;;;10.73;39.91;95136.00;5130841;27;20022;-72
2021/03/03 10:43:20;;;;;;;27.73;9.93;;;;;;;10.78;40.02;95127.94;5130689;27;20027;-72
2021/03/03 10:46:06;;;;;;;23.48;10.07;;;;;;;10.79;39.16;95130.31;5129389;27;20094;-72
2021/03/03 10:48:32;;;;;;;19.33;9.88;;;;;;;10.92;39.63;95125.38;5147051;27;20489;-69
2021/03/03 10:51:01;;;;;;;25.20;9.70;;;;;;;11.03;38.86;95113.50;5138307;27;20031;-74
2021/03/03 10:53:55;;;;;;;23.52;9.20;;;;;;;11.11;38.08;95109.44;5151380;27;21848;-74
2021/03/03 10:56:43;;;;;;;23.30;9.40;;;;;;;11.12;37.25;95101.13;5132403;27;20469;-65
2021/03/03 10:59:28;;;;;;;18.88;9.45;;;;;;;11.22;37.80;95100.22;5151211;27;20040;-71
2021/03/03 11:01:58;;;;;;;20.25;9.43;;;;;;;11.39;37.18;95089.84;5132590;27;20498;-70
2021/03/03 11:04:46;;;;;;;18.75;9.05;;;;;;;11.50;37.01;95093.19;5135965;27;20102;-75
2021/03/03 11:07:16;;;;;;;24.98;8.70;;;;;;;11.67;35.97;95084.66;5130490;27;20023;-75
2021/03/03 11:09:42;;;;;;;20.15;9.30;;;;;;;11.76;36.58;95082.13;5152485;27;20062;-75
2021/03/03 11:12:08;;;;;;;22.42;11.48;;;;;;;11.93;36.34;95078.97;5134002;27;20023;-74
2021/03/03 11:14:35;;;;;;;23.90;10.68;;;;;;;12.02;35.39;95075.31;5133984;27;20025;-73
2021/03/03 11:17:02;;;;;;;17.85;8.52;;;;;;;12.15;34.36;95081.00;5133863;27;20038;-74
2021/03/03 11:19:30;;;;;;;18.85;9.20;;;;;;;12.13;34.62;95075.97;5151782;27;20018;-73
2021/03/03 11:21:56;;;;;;;17.80;8.68;;;;;;;12.22;34.00;95068.84;5152558;27;20015;-74
2021/03/03 11:24:23;;;;;;;18.38;9.15;;;;;;;12.33;33.64;95066.00;5130067;27;20056;-78
2021/03/03 11:26:50;;;;;;;22.90;9.25;;;;;;;12.42;33.46;95061.59;5149432;27;20023;-76
2021/03/03 11:29:16;;;;;;;18.58;9.25;;;;;;;12.60;33.79;95052.69;5122412;28;20107;-79
2021/03/03 11:31:43;;;;;;;19.48;8.85;;;;;;;12.83;32.57;95060.81;5141975;27;20062;-75
2021/03/03 11:34:08;;;;;;;18.63;7.82;;;;;;;12.93;31.97;95044.56;5149840;27;20118;-73
2021/03/03 11:36:35;;;;;;;17.10;8.30;;;;;;;13.06;32.66;95048.31;5152297;27;20114;-74
2021/03/03 11:39:01;;;;;;;17.17;8.35;;;;;;;13.21;31.18;95049.91;5131062;27;20396;-74